sensor_id;sensor_type;location;lat;lon;timestamp;P1;durP1;ratioP1;P2;durP2;ratioP2
21517;SDS011;61765;45.794;24.150;2023-07-31T00:05:21;18.65;;;16.65;;
21517;SDS011;61765;45.794;24.150;2023-07-31T00:39:57;21.88;;;19.65;;
21517;SDS011;61765;45.794;24.150;2023-07-31T00:48:13;21.58;;;18.83;;
21517;SDS011;61765;45.794;24.150;2023-07-31T00:56:22;20.52;;;17.75;;
21517;SDS011;61765;45.794;24.150;2023-07-31T01:13:15;12.52;;;10.95;;
21517;SDS011;61765;45.794;24.150;2023-07-31T01:21:30;12.25;;;10.95;;
21517;SDS011;61765;45.794;24.150;2023-07-31T01:47:25;10.13;;;9.13;;
21517;SDS011;61765;45.794;24.150;2023-07-31T01:55:31;10.75;;;9.65;;
21517;SDS011;61765;45.794;24.150;2023-07-31T02:03:39;11.15;;;8.88;;
21517;SDS011;61765;45.794;24.150;2023-07-31T02:11:45;10.32;;;9.23;;
21517;SDS011;61765;45.794;24.150;2023-07-31T02:19:53;9.82;;;8.82;;
21517;SDS011;61765;45.794;24.150;2023-07-31T02:27:59;10.73;;;9.63;;
21517;SDS011;61765;45.794;24.150;2023-07-31T02:36:07;15.40;;;11.77;;
21517;SDS011;61765;45.794;24.150;2023-07-31T02:44:13;12.35;;;11.13;;
21517;SDS011;61765;45.794;24.150;2023-07-31T02:52:21;15.23;;;13.57;;
21517;SDS011;61765;45.794;24.150;2023-07-31T03:00:27;15.90;;;13.85;;
21517;SDS011;61765;45.794;24.150;2023-07-31T03:08:35;16.83;;;15.13;;
21517;SDS011;61765;45.794;24.150;2023-07-31T03:16:41;18.88;;;16.73;;
21517;SDS011;61765;45.794;24.150;2023-07-31T03:24:49;18.42;;;15.55;;
21517;SDS011;61765;45.794;24.150;2023-07-31T03:32:54;25.55;;;20.30;;
21517;SDS011;61765;45.794;24.150;2023-07-31T03:41:03;21.58;;;19.45;;
21517;SDS011;61765;45.794;24.150;2023-07-31T03:49:10;23.63;;;21.20;;
21517;SDS011;61765;45.794;24.150;2023-07-31T03:57:18;23.13;;;20.55;;
21517;SDS011;61765;45.794;24.150;2023-07-31T04:05:24;19.90;;;17.70;;
21517;SDS011;61765;45.794;24.150;2023-07-31T04:13:32;18.17;;;16.38;;
21517;SDS011;61765;45.794;24.150;2023-07-31T04:21:37;18.92;;;17.02;;
21517;SDS011;61765;45.794;24.150;2023-07-31T04:29:45;19.73;;;16.38;;
21517;SDS011;61765;45.794;24.150;2023-07-31T04:37:51;18.77;;;16.77;;
21517;SDS011;61765;45.794;24.150;2023-07-31T04:45:59;20.60;;;18.40;;
21517;SDS011;61765;45.794;24.150;2023-07-31T04:54:05;16.55;;;14.93;;
21517;SDS011;61765;45.794;24.150;2023-07-31T05:02:13;18.33;;;16.42;;
21517;SDS011;61765;45.794;24.150;2023-07-31T05:10:18;16.77;;;15.00;;
21517;SDS011;61765;45.794;24.150;2023-07-31T05:18:26;18.83;;;16.95;;
21517;SDS011;61765;45.794;24.150;2023-07-31T05:26:31;20.63;;;17.48;;
21517;SDS011;61765;45.794;24.150;2023-07-31T05:34:40;21.08;;;18.85;;
21517;SDS011;61765;45.794;24.150;2023-07-31T05:42:45;20.27;;;18.20;;
21517;SDS011;61765;45.794;24.150;2023-07-31T05:50:53;17.98;;;16.20;;
21517;SDS011;61765;45.794;24.150;2023-07-31T05:58:58;17.73;;;15.93;;
21517;SDS011;61765;45.794;24.150;2023-07-31T06:07:07;14.10;;;12.77;;
21517;SDS011;61765;45.794;24.150;2023-07-31T06:15:12;15.90;;;14.25;;
21517;SDS011;61765;45.794;24.150;2023-07-31T06:23:22;15.07;;;13.57;;
21517;SDS011;61765;45.794;24.150;2023-07-31T06:31:27;15.45;;;13.85;;
21517;SDS011;61765;45.794;24.150;2023-07-31T06:39:36;15.82;;;14.23;;
21517;SDS011;61765;45.794;24.150;2023-07-31T06:47:42;16.42;;;14.20;;
21517;SDS011;61765;45.794;24.150;2023-07-31T06:55:50;12.35;;;11.07;;
21517;SDS011;61765;45.794;24.150;2023-07-31T07:03:59;9.27;;;8.05;;
21517;SDS011;61765;45.794;24.150;2023-07-31T07:12:08;10.10;;;7.25;;
21517;SDS011;61765;45.794;24.150;2023-07-31T07:20:14;6.95;;;6.30;;
21517;SDS011;61765;45.794;24.150;2023-07-31T07:28:24;7.22;;;6.50;;
21517;SDS011;61765;45.794;24.150;2023-07-31T07:36:30;8.32;;;6.78;;
21517;SDS011;61765;45.794;24.150;2023-07-31T07:44:39;7.00;;;6.40;;
21517;SDS011;61765;45.794;24.150;2023-07-31T07:52:44;7.88;;;6.50;;
21517;SDS011;61765;45.794;24.150;2023-07-31T08:00:52;7.13;;;6.43;;
21517;SDS011;61765;45.794;24.150;2023-07-31T08:08:59;7.22;;;5.88;;
21517;SDS011;61765;45.794;24.150;2023-07-31T08:17:10;5.35;;;4.75;;
21517;SDS011;61765;45.794;24.150;2023-07-31T08:25:19;5.22;;;4.43;;
21517;SDS011;61765;45.794;24.150;2023-07-31T08:33:27;4.68;;;4.28;;
21517;SDS011;61765;45.794;24.150;2023-07-31T08:41:37;7.28;;;4.38;;
21517;SDS011;61765;45.794;24.150;2023-07-31T08:49:46;10.00;;;7.55;;
21517;SDS011;61765;45.794;24.150;2023-07-31T08:57:53;5.80;;;4.68;;
21517;SDS011;61765;45.794;24.150;2023-07-31T09:06:03;6.47;;;4.95;;
21517;SDS011;61765;45.794;24.150;2023-07-31T09:14:09;5.28;;;4.20;;
21517;SDS011;61765;45.794;24.150;2023-07-31T09:22:18;4.50;;;3.88;;
21517;SDS011;61765;45.794;24.150;2023-07-31T09:38:52;4.03;;;3.60;;
21517;SDS011;61765;45.794;24.150;2023-07-31T09:46:57;4.03;;;3.63;;
21517;SDS011;61765;45.794;24.150;2023-07-31T09:55:06;3.63;;;3.10;;
21517;SDS011;61765;45.794;24.150;2023-07-31T10:03:12;4.13;;;3.40;;
21517;SDS011;61765;45.794;24.150;2023-07-31T10:11:22;4.78;;;2.88;;
21517;SDS011;61765;45.794;24.150;2023-07-31T10:19:30;3.30;;;2.97;;
21517;SDS011;61765;45.794;24.150;2023-07-31T10:27:39;3.63;;;2.92;;
21517;SDS011;61765;45.794;24.150;2023-07-31T10:35:45;3.03;;;2.70;;
21517;SDS011;61765;45.794;24.150;2023-07-31T10:43:59;3.38;;;2.97;;
21517;SDS011;61765;45.794;24.150;2023-07-31T10:52:05;3.20;;;2.33;;
21517;SDS011;61765;45.794;24.150;2023-07-31T11:08:26;2.65;;;2.45;;
21517;SDS011;61765;45.794;24.150;2023-07-31T11:16:36;4.60;;;3.70;;
21517;SDS011;61765;45.794;24.150;2023-07-31T11:24:41;2.60;;;2.03;;
21517;SDS011;61765;45.794;24.150;2023-07-31T11:32:51;3.83;;;2.42;;
21517;SDS011;61765;45.794;24.150;2023-07-31T11:40:57;2.90;;;2.70;;
21517;SDS011;61765;45.794;24.150;2023-07-31T11:49:06;2.10;;;1.95;;
21517;SDS011;61765;45.794;24.150;2023-07-31T11:57:13;3.42;;;2.80;;
21517;SDS011;61765;45.794;24.150;2023-07-31T12:05:21;3.00;;;2.43;;
21517;SDS011;61765;45.794;24.150;2023-07-31T12:13:27;2.42;;;1.70;;
21517;SDS011;61765;45.794;24.150;2023-07-31T12:21:38;5.38;;;4.88;;
21517;SDS011;61765;45.794;24.150;2023-07-31T12:29:43;2.40;;;2.20;;
21517;SDS011;61765;45.794;24.150;2023-07-31T12:37:51;4.70;;;3.00;;
21517;SDS011;61765;45.794;24.150;2023-07-31T12:45:57;2.50;;;1.98;;
21517;SDS011;61765;45.794;24.150;2023-07-31T12:54:05;5.20;;;2.45;;
21517;SDS011;61765;45.794;24.150;2023-07-31T13:02:11;3.85;;;2.80;;
21517;SDS011;61765;45.794;24.150;2023-07-31T13:10:22;3.15;;;2.40;;
21517;SDS011;61765;45.794;24.150;2023-07-31T13:18:31;3.55;;;2.50;;
21517;SDS011;61765;45.794;24.150;2023-07-31T13:26:39;2.83;;;2.63;;
21517;SDS011;61765;45.794;24.150;2023-07-31T13:34:45;2.85;;;2.42;;
21517;SDS011;61765;45.794;24.150;2023-07-31T13:42:54;2.20;;;2.10;;
21517;SDS011;61765;45.794;24.150;2023-07-31T13:50:59;4.07;;;2.80;;
21517;SDS011;61765;45.794;24.150;2023-07-31T13:59:07;2.40;;;2.20;;
21517;SDS011;61765;45.794;24.150;2023-07-31T14:07:13;3.95;;;2.75;;
21517;SDS011;61765;45.794;24.150;2023-07-31T14:15:22;3.33;;;2.50;;
21517;SDS011;61765;45.794;24.150;2023-07-31T14:23:27;2.70;;;2.20;;
21517;SDS011;61765;45.794;24.150;2023-07-31T14:31:35;3.58;;;3.20;;
21517;SDS011;61765;45.794;24.150;2023-07-31T14:39:41;7.22;;;3.13;;
21517;SDS011;61765;45.794;24.150;2023-07-31T14:47:49;2.97;;;2.47;;
21517;SDS011;61765;45.794;24.150;2023-07-31T14:55:54;3.50;;;2.72;;
21517;SDS011;61765;45.794;24.150;2023-07-31T15:04:02;4.30;;;2.60;;
21517;SDS011;61765;45.794;24.150;2023-07-31T15:12:11;2.85;;;2.63;;
21517;SDS011;61765;45.794;24.150;2023-07-31T15:20:19;2.30;;;2.10;;
21517;SDS011;61765;45.794;24.150;2023-07-31T15:28:24;4.72;;;2.20;;
21517;SDS011;61765;45.794;24.150;2023-07-31T15:36:33;3.22;;;2.35;;
21517;SDS011;61765;45.794;24.150;2023-07-31T15:44:39;3.80;;;2.70;;
21517;SDS011;61765;45.794;24.150;2023-07-31T15:52:47;4.25;;;2.85;;
21517;SDS011;61765;45.794;24.150;2023-07-31T16:00:52;4.72;;;2.50;;
21517;SDS011;61765;45.794;24.150;2023-07-31T16:09:01;3.47;;;2.55;;
21517;SDS011;61765;45.794;24.150;2023-07-31T16:17:06;5.78;;;3.33;;
21517;SDS011;61765;45.794;24.150;2023-07-31T16:25:16;2.30;;;1.90;;
21517;SDS011;61765;45.794;24.150;2023-07-31T16:33:22;2.35;;;2.15;;
21517;SDS011;61765;45.794;24.150;2023-07-31T16:41:31;2.47;;;2.20;;
21517;SDS011;61765;45.794;24.150;2023-07-31T16:49:36;4.22;;;3.83;;
21517;SDS011;61765;45.794;24.150;2023-07-31T16:57:44;4.18;;;2.90;;
21517;SDS011;61765;45.794;24.150;2023-07-31T17:05:49;3.88;;;2.72;;
21517;SDS011;61765;45.794;24.150;2023-07-31T17:13:57;3.40;;;2.47;;
21517;SDS011;61765;45.794;24.150;2023-07-31T17:22:05;5.70;;;3.28;;
21517;SDS011;61765;45.794;24.150;2023-07-31T17:30:13;5.90;;;3.95;;
21517;SDS011;61765;45.794;24.150;2023-07-31T17:38:19;4.38;;;2.80;;
21517;SDS011;61765;45.794;24.150;2023-07-31T17:46:27;4.22;;;2.53;;
21517;SDS011;61765;45.794;24.150;2023-07-31T17:54:33;3.72;;;2.63;;
21517;SDS011;61765;45.794;24.150;2023-07-31T18:02:41;4.13;;;2.60;;
21517;SDS011;61765;45.794;24.150;2023-07-31T18:10:46;4.90;;;2.28;;
21517;SDS011;61765;45.794;24.150;2023-07-31T18:18:55;2.95;;;2.08;;
21517;SDS011;61765;45.794;24.150;2023-07-31T18:27:00;4.78;;;2.28;;
21517;SDS011;61765;45.794;24.150;2023-07-31T18:35:09;3.63;;;2.38;;
21517;SDS011;61765;45.794;24.150;2023-07-31T18:43:15;3.75;;;2.00;;
21517;SDS011;61765;45.794;24.150;2023-07-31T18:51:23;3.22;;;1.90;;
21517;SDS011;61765;45.794;24.150;2023-07-31T18:59:29;2.25;;;1.90;;
21517;SDS011;61765;45.794;24.150;2023-07-31T19:07:37;3.30;;;2.22;;
21517;SDS011;61765;45.794;24.150;2023-07-31T19:15:45;4.32;;;2.28;;
21517;SDS011;61765;45.794;24.150;2023-07-31T19:23:53;3.25;;;2.00;;
21517;SDS011;61765;45.794;24.150;2023-07-31T19:31:59;2.47;;;2.20;;
21517;SDS011;61765;45.794;24.150;2023-07-31T19:40:08;3.05;;;2.22;;
21517;SDS011;61765;45.794;24.150;2023-07-31T19:48:14;5.25;;;2.13;;
21517;SDS011;61765;45.794;24.150;2023-07-31T19:56:22;3.47;;;2.38;;
21517;SDS011;61765;45.794;24.150;2023-07-31T20:04:30;4.10;;;2.08;;
21517;SDS011;61765;45.794;24.150;2023-07-31T20:12:38;3.05;;;2.30;;
21517;SDS011;61765;45.794;24.150;2023-07-31T20:20:44;3.05;;;2.05;;
21517;SDS011;61765;45.794;24.150;2023-07-31T20:28:52;2.78;;;2.08;;
21517;SDS011;61765;45.794;24.150;2023-07-31T20:36:57;3.58;;;2.30;;
21517;SDS011;61765;45.794;24.150;2023-07-31T20:45:06;3.15;;;2.65;;
21517;SDS011;61765;45.794;24.150;2023-07-31T20:53:14;4.53;;;2.90;;
21517;SDS011;61765;45.794;24.150;2023-07-31T21:01:22;4.15;;;2.50;;
21517;SDS011;61765;45.794;24.150;2023-07-31T21:09:28;6.25;;;2.30;;
21517;SDS011;61765;45.794;24.150;2023-07-31T21:17:36;2.95;;;2.30;;
21517;SDS011;61765;45.794;24.150;2023-07-31T21:25:42;3.33;;;2.42;;
21517;SDS011;61765;45.794;24.150;2023-07-31T21:33:50;6.50;;;2.58;;
21517;SDS011;61765;45.794;24.150;2023-07-31T21:41:55;4.55;;;2.55;;
21517;SDS011;61765;45.794;24.150;2023-07-31T21:50:04;6.88;;;3.33;;
21517;SDS011;61765;45.794;24.150;2023-07-31T21:58:10;9.23;;;5.68;;
21517;SDS011;61765;45.794;24.150;2023-07-31T22:06:18;6.72;;;5.50;;
21517;SDS011;61765;45.794;24.150;2023-07-31T22:14:24;6.57;;;4.03;;
21517;SDS011;61765;45.794;24.150;2023-07-31T22:22:32;3.70;;;3.15;;
21517;SDS011;61765;45.794;24.150;2023-07-31T22:30:37;4.47;;;3.20;;
21517;SDS011;61765;45.794;24.150;2023-07-31T22:38:45;4.63;;;2.97;;
21517;SDS011;61765;45.794;24.150;2023-07-31T22:46:51;6.93;;;3.15;;
21517;SDS011;61765;45.794;24.150;2023-07-31T22:54:59;6.47;;;2.75;;
21517;SDS011;61765;45.794;24.150;2023-07-31T23:03:04;4.75;;;2.80;;
21517;SDS011;61765;45.794;24.150;2023-07-31T23:11:12;5.00;;;2.60;;
21517;SDS011;61765;45.794;24.150;2023-07-31T23:19:18;4.03;;;2.67;;
21517;SDS011;61765;45.794;24.150;2023-07-31T23:27:28;5.28;;;3.17;;
21517;SDS011;61765;45.794;24.150;2023-07-31T23:35:33;6.53;;;4.05;;
21517;SDS011;61765;45.794;24.150;2023-07-31T23:43:41;3.80;;;3.22;;
21517;SDS011;61765;45.794;24.150;2023-07-31T23:51:47;5.22;;;2.42;;
21517;SDS011;61765;45.794;24.150;2023-07-31T23:59:55;4.60;;;3.30;;
